Time;durP1;ratioP1;P1;durP2;ratioP2;P2;SDS_P1;SDS_P2;PMS_P1;PMS_P2;Temp;Humidity;BMP_temperature;BMP_pressure;BME280_temperature;BME280_humidity;BME280_pressure;Samples;Min_cycle;Max_cycle;Signal;HPM_P1;HPM_P2
2022/06/18 00:01:33;;;;;;;3.95;1.70;;;;;;;25.17;54.17;101551.53;1590666;86;21034;-49
2022/06/18 00:04:13;;;;;;;4.92;1.95;;;;;;;25.16;54.27;101552.50;1661855;86;21129;-56
2022/06/18 00:06:53;;;;;;;2.20;1.92;;;;;;;25.12;54.33;101551.02;1659793;86;21011;-51
2022/06/18 00:09:31;;;;;;;3.08;2.00;;;;;;;25.12;54.33;101552.34;1646432;86;21122;-50
2022/06/18 00:15:02;;;;;;;2.80;1.80;;;;;;;25.03;53.89;101548.50;1479003;97;21149;-50
2022/06/18 00:17:29;;;;;;;2.47;2.08;;;;;;;24.99;54.15;101555.00;1479121;97;21118;-50
2022/06/18 00:19:56;;;;;;;4.87;2.05;;;;;;;24.98;54.24;101554.61;1472448;97;21116;-52
2022/06/18 00:22:23;;;;;;;5.83;2.52;;;;;;;24.97;54.37;101554.26;1479065;97;21634;-51
2022/06/18 00:24:50;;;;;;;6.28;2.20;;;;;;;24.99;54.09;101554.14;1478999;97;21124;-51
2022/06/18 00:27:18;;;;;;;3.05;1.87;;;;;;;24.96;54.13;101559.66;1479170;97;21128;-51
2022/06/18 00:29:47;;;;;;;4.22;2.17;;;;;;;24.92;54.07;101556.84;1479110;97;21105;-51
2022/06/18 00:32:14;;;;;;;3.27;2.22;;;;;;;24.89;54.32;101559.73;1474813;97;21088;-51
2022/06/18 00:34:42;;;;;;;4.05;2.72;;;;;;;24.89;54.32;101559.73;1477377;97;21393;-51
2022/06/18 00:37:15;;;;;;;5.12;2.10;;;;;;;24.83;54.37;101564.15;1493084;95;21108;-54
2022/06/18 00:39:43;;;;;;;2.30;2.05;;;;;;;24.83;54.37;101564.15;1509380;95;21206;-52
2022/06/18 00:42:16;;;;;;;3.83;2.83;;;;;;;24.78;54.39;101556.47;1509440;95;21156;-50
2022/06/18 00:44:44;;;;;;;2.62;2.05;;;;;;;24.79;54.71;101562.66;1504182;95;21055;-53
2022/06/18 00:47:34;;;;;;;4.42;2.35;;;;;;;24.79;54.71;101562.66;1521651;93;21089;-52
2022/06/18 00:50:18;;;;;;;4.22;2.40;;;;;;;24.75;54.76;101565.15;1565222;91;21050;-50
2022/06/18 00:52:56;;;;;;;3.72;2.50;;;;;;;24.75;54.76;101565.15;1610728;88;21038;-51
2022/06/18 00:55:45;;;;;;;4.70;2.52;;;;;;;24.72;54.67;101562.65;1676019;85;21101;-51
2022/06/18 00:58:33;;;;;;;4.83;2.40;;;;;;;24.69;54.89;101562.87;1675119;85;21086;-52
2022/06/18 01:01:00;;;;;;;3.70;2.77;;;;;;;24.62;55.20;101550.92;1619734;87;21540;-55
2022/06/18 01:03:33;;;;;;;4.97;2.98;;;;;;;24.55;55.43;101547.81;1619860;87;21082;-49
2022/06/18 01:06:05;;;;;;;5.33;2.55;;;;;;;24.53;55.74;101543.08;1620495;87;21051;-52
2022/06/18 01:08:33;;;;;;;3.45;2.80;;;;;;;24.53;55.81;101551.53;1618433;87;21081;-52
2022/06/18 01:11:04;;;;;;;2.58;2.27;;;;;;;24.51;55.93;101555.63;1622160;87;21530;-50
2022/06/18 01:13:38;;;;;;;3.92;2.10;;;;;;;24.48;55.57;101563.83;1611925;87;21036;-54
2022/06/18 01:16:07;;;;;;;2.40;2.20;;;;;;;24.44;55.10;101558.31;1617832;87;21065;-49
2022/06/18 01:18:34;;;;;;;3.83;2.20;;;;;;;24.35;54.83;101559.41;1620475;87;21033;-55
2022/06/18 01:21:07;;;;;;;3.35;2.30;;;;;;;24.35;54.83;101559.41;1619746;87;21615;-50
2022/06/18 01:23:51;;;;;;;2.50;2.10;;;;;;;24.27;54.62;101558.59;1601980;89;21119;-52
2022/06/18 01:26:19;;;;;;;2.02;1.82;;;;;;;24.27;54.62;101558.59;1601590;89;21643;-52
2022/06/18 01:28:46;;;;;;;5.72;2.35;;;;;;;24.22;54.20;101556.23;1601634;89;21066;-52
2022/06/18 01:31:15;;;;;;;2.80;2.05;;;;;;;24.10;54.73;101564.16;1611515;87;21067;-51
2022/06/18 01:33:42;;;;;;;2.35;1.95;;;;;;;24.10;54.73;101564.16;1625965;87;21526;-50
2022/06/18 01:36:11;;;;;;;3.20;2.12;;;;;;;24.07;54.51;101566.53;1620161;88;21111;-50
2022/06/18 01:38:43;;;;;;;1.98;1.77;;;;;;;23.95;54.80;101565.97;1612245;88;21148;-51
2022/06/18 01:44:09;;;;;;;4.53;2.20;;;;;;;23.87;54.49;101560.30;1616650;88;21048;-55
2022/06/18 01:46:36;;;;;;;2.90;1.90;;;;;;;23.87;54.49;101560.30;1642229;85;21019;-51
2022/06/18 01:49:06;;;;;;;3.10;2.20;;;;;;;23.84;54.36;101568.48;1682627;83;21008;-53
2022/06/18 01:51:36;;;;;;;2.05;1.85;;;;;;;23.81;54.44;101560.69;1680144;83;20972;-54
2022/06/18 01:54:13;;;;;;;2.98;2.22;;;;;;;23.78;54.71;101565.36;1678718;83;21047;-51
2022/06/18 01:56:44;;;;;;;2.40;2.20;;;;;;;23.76;54.98;101562.77;1671669;83;21039;-51
2022/06/18 01:59:36;;;;;;;2.30;2.15;;;;;;;23.76;55.07;101561.95;1677870;83;20979;-51
2022/06/18 02:02:05;;;;;;;4.60;2.37;;;;;;;23.75;55.32;101568.20;1631417;86;21149;-51
2022/06/18 02:04:33;;;;;;;3.98;2.52;;;;;;;23.75;55.35;101571.72;1642846;87;21069;-50
2022/06/18 02:07:00;;;;;;;3.20;2.17;;;;;;;23.73;55.44;101570.95;1642469;86;21586;-50
2022/06/18 02:09:38;;;;;;;2.08;1.98;;;;;;;23.71;55.24;101571.53;1642394;86;21553;-51
2022/06/18 02:12:12;;;;;;;3.55;2.45;;;;;;;23.70;55.38;101568.48;1642519;86;21554;-51
2022/06/18 02:14:41;;;;;;;2.85;2.25;;;;;;;23.72;55.41;101571.89;1621660;86;21727;-52
2022/06/18 02:17:09;;;;;;;3.22;2.22;;;;;;;23.73;55.64;101575.41;1642721;86;21077;-53
2022/06/18 02:19:36;;;;;;;3.62;2.45;;;;;;;23.74;55.63;101578.47;1646926;86;21067;-50
2022/06/18 02:22:05;;;;;;;2.20;1.95;;;;;;;23.74;55.41;101574.48;1665384;84;21052;-51
2022/06/18 02:24:32;;;;;;;2.90;2.33;;;;;;;23.72;55.19;101579.87;1639331;86;21052;-50
2022/06/18 02:26:58;;;;;;;4.28;2.90;;;;;;;23.72;55.19;101579.87;1665239;84;21044;-51
2022/06/18 02:29:30;;;;;;;2.72;2.42;;;;;;;23.72;54.96;101589.17;1665231;85;21102;-52
2022/06/18 02:31:56;;;;;;;;;;;;;;;23.72;54.96;101589.17;1667688;85;21583;-50
2022/06/18 02:34:29;;;;;;;3.05;2.40;;;;;;;23.68;55.42;101576.20;1661956;85;20134;-50
2022/06/18 02:36:56;;;;;;;3.42;2.67;;;;;;;23.66;55.67;101583.41;1660463;85;21547;-52
2022/06/18 02:39:38;;;;;;;3.40;2.37;;;;;;;23.65;55.49;101575.05;1660147;85;21075;-52
2022/06/18 02:42:09;;;;;;;2.45;2.25;;;;;;;23.64;55.55;101584.81;1660505;85;21103;-50
2022/06/18 02:44:38;;;;;;;3.27;2.50;;;;;;;23.63;55.52;101591.56;1660884;85;21096;-50
2022/06/18 02:47:06;;;;;;;3.87;2.22;;;;;;;23.61;55.79;101594.32;1660612;85;21071;-50
2022/06/18 02:49:37;;;;;;;4.00;2.37;;;;;;;23.59;56.12;101597.55;1660283;85;21052;-51
2022/06/18 02:52:06;;;;;;;3.27;2.58;;;;;;;23.57;56.08;101583.51;1660618;85;21035;-51
2022/06/18 02:54:33;;;;;;;2.70;2.47;;;;;;;23.54;56.37;101592.98;1593447;89;21098;-52
2022/06/18 02:57:02;;;;;;;4.30;3.20;;;;;;;23.55;56.32;101589.86;1608267;86;21577;-53
2022/06/18 02:59:31;;;;;;;5.10;2.45;;;;;;;23.53;56.60;101588.63;1669105;85;21013;-49
2022/06/18 03:02:00;;;;;;;3.35;2.60;;;;;;;23.55;56.75;101588.53;1675051;85;21086;-55
2022/06/18 03:04:27;;;;;;;2.77;2.52;;;;;;;23.54;56.91;101590.33;1673721;85;21528;-50
2022/06/18 03:06:55;;;;;;;5.40;3.00;;;;;;;23.55;57.27;101596.03;1660022;85;21094;-50
2022/06/18 03:09:24;;;;;;;3.22;2.60;;;;;;;23.52;57.24;101596.21;1671765;85;21057;-52
2022/06/18 03:12:06;;;;;;;3.20;2.87;;;;;;;23.50;57.42;101593.27;1667685;85;21093;-49
2022/06/18 03:14:35;;;;;;;5.22;2.92;;;;;;;23.47;57.45;101596.98;1664812;85;21654;-51
2022/06/18 03:17:03;;;;;;;2.87;2.52;;;;;;;23.47;57.49;101595.66;1672118;85;21097;-51
2022/06/18 03:19:41;;;;;;;2.87;2.67;;;;;;;23.45;57.66;101600.22;1661570;85;21086;-52
2022/06/18 03:22:13;;;;;;;4.15;3.35;;;;;;;23.41;57.80;101598.70;1617914;88;21060;-52
2022/06/18 03:24:41;;;;;;;3.72;3.35;;;;;;;23.39;57.93;101596.58;1625614;88;21558;-49
2022/06/18 03:27:09;;;;;;;4.10;3.00;;;;;;;23.37;58.11;101599.80;1625598;88;21053;-51
2022/06/18 03:29:36;;;;;;;3.92;3.62;;;;;;;23.33;58.24;101588.98;1624005;88;21104;-50
2022/06/18 03:32:04;;;;;;;3.80;3.42;;;;;;;23.30;58.43;101594.47;1624297;88;21037;-52
2022/06/18 03:34:32;;;;;;;3.90;3.58;;;;;;;23.28;58.51;101591.06;1622525;88;21557;-55
2022/06/18 03:36:59;;;;;;;4.40;3.50;;;;;;;23.27;58.65;101590.66;1588333;90;21155;-51
2022/06/18 03:39:26;;;;;;;4.25;3.65;;;;;;;23.27;58.60;101588.00;1588320;90;21117;-50
2022/06/18 03:41:56;;;;;;;4.35;3.87;;;;;;;23.27;58.85;101588.87;1580257;90;21561;-50
2022/06/18 03:44:24;;;;;;;4.50;3.90;;;;;;;23.29;58.85;101593.61;1616586;88;21118;-51
2022/06/18 03:46:52;;;;;;;3.90;3.33;;;;;;;23.36;58.82;101596.78;1618812;88;21066;-53
2022/06/18 03:49:29;;;;;;;5.03;3.67;;;;;;;23.42;58.59;101599.06;1584128;90;21104;-52
2022/06/18 03:51:58;;;;;;;3.62;3.10;;;;;;;23.47;58.47;101597.45;1572812;91;21589;-52
2022/06/18 03:54:25;;;;;;;3.65;3.35;;;;;;;23.51;58.22;101599.83;1572729;91;21565;-52
2022/06/18 03:56:52;;;;;;;4.47;3.70;;;;;;;23.58;58.18;101598.48;1577473;88;21061;-54
2022/06/18 03:59:20;;;;;;;4.10;3.70;;;;;;;23.68;57.86;101598.28;1653721;86;21040;-53
2022/06/18 04:01:46;;;;;;;6.80;3.92;;;;;;;23.79;57.60;101601.59;1650623;86;21081;-55
2022/06/18 04:04:14;;;;;;;4.22;3.47;;;;;;;23.85;57.44;101602.06;1650850;86;21091;-51
2022/06/18 04:06:46;;;;;;;4.70;4.30;;;;;;;23.87;57.07;101607.28;1606394;88;21079;-50
2022/06/18 04:09:32;;;;;;;4.10;3.80;;;;;;;23.84;57.01;101603.03;1598323;88;21109;-49
2022/06/18 04:11:59;;;;;;;4.85;4.45;;;;;;;23.81;57.15;101605.88;1629201;87;21069;-48
2022/06/18 04:14:28;;;;;;;5.00;4.55;;;;;;;23.79;57.26;101619.73;1627073;87;21097;-51
2022/06/18 04:16:57;;;;;;;5.90;5.17;;;;;;;23.76;57.30;101615.92;1604183;89;21010;-49
2022/06/18 04:19:25;;;;;;;6.12;5.53;;;;;;;23.76;57.30;101615.92;1599429;89;21081;-50
2022/06/18 04:21:54;;;;;;;6.47;5.50;;;;;;;23.71;56.98;101619.36;1607808;88;21155;-49
2022/06/18 04:24:23;;;;;;;5.60;5.10;;;;;;;23.67;56.84;101619.17;1607696;89;21062;-50
2022/06/18 04:26:54;;;;;;;6.58;6.05;;;;;;;23.60;56.82;101623.63;1606872;89;21101;-49
2022/06/18 04:29:22;;;;;;;6.83;5.83;;;;;;;23.52;56.73;101625.44;1606707;89;21152;-49
2022/06/18 04:31:51;;;;;;;8.03;6.25;;;;;;;23.44;56.76;101621.06;1607533;89;21118;-51
2022/06/18 04:34:19;;;;;;;7.45;6.75;;;;;;;23.36;56.97;101618.03;1603058;88;21085;-50
2022/06/18 04:37:00;;;;;;;8.90;6.60;;;;;;;23.31;57.12;101628.03;1567230;90;21076;-49
2022/06/18 04:39:35;;;;;;;7.83;7.10;;;;;;;23.24;57.16;101625.39;1563281;90;21172;-48
2022/06/18 04:42:12;;;;;;;8.43;7.60;;;;;;;23.15;57.34;101632.10;1524213;93;21184;-51
2022/06/18 04:44:43;;;;;;;8.70;7.47;;;;;;;23.09;57.54;101634.27;1521169;93;21133;-49
2022/06/18 04:47:28;;;;;;;8.88;8.05;;;;;;;23.01;57.59;101642.69;1532795;93;21089;-50
2022/06/18 04:49:56;;;;;;;10.55;8.73;;;;;;;22.96;57.59;101643.89;1517967;93;21092;-48
2022/06/18 04:52:24;;;;;;;11.48;9.50;;;;;;;22.86;57.76;101648.03;1518950;93;21632;-49
2022/06/18 04:54:53;;;;;;;11.43;10.30;;;;;;;22.79;57.89;101652.87;1507849;93;21119;-51
2022/06/18 04:57:21;;;;;;;10.40;9.35;;;;;;;22.73;57.85;101651.04;1510367;95;21545;-50
2022/06/18 04:59:48;;;;;;;11.05;9.93;;;;;;;22.65;58.11;101650.99;1528373;93;21580;-49
2022/06/18 05:02:23;;;;;;;10.80;9.80;;;;;;;22.59;58.20;101668.59;1479043;94;21070;-48
2022/06/18 05:05:01;;;;;;;11.33;10.13;;;;;;;22.55;58.01;101667.48;1570597;91;21072;-49
2022/06/18 05:07:46;;;;;;;11.80;10.20;;;;;;;22.46;58.42;101666.20;1529303;93;21683;-49
2022/06/18 05:10:18;;;;;;;10.80;9.70;;;;;;;22.46;58.65;101652.12;1493230;96;21100;-48
2022/06/18 05:12:53;;;;;;;11.90;10.65;;;;;;;22.44;58.97;101657.48;1491091;95;21627;-51
2022/06/18 05:15:39;;;;;;;11.70;10.50;;;;;;;22.47;59.34;101656.46;1493385;95;21665;-50
2022/06/18 05:18:09;;;;;;;15.20;11.93;;;;;;;22.52;59.43;101668.52;1499703;93;21145;-49
2022/06/18 05:20:36;;;;;;;13.32;12.03;;;;;;;22.56;59.23;101671.41;1539993;93;21105;-48
2022/06/18 05:23:05;;;;;;;12.80;11.45;;;;;;;22.59;59.04;101665.08;1540185;93;21101;-51
2022/06/18 05:25:32;;;;;;;12.95;11.65;;;;;;;22.59;58.81;101661.96;1540007;93;21138;-48
2022/06/18 05:27:59;;;;;;;13.50;12.20;;;;;;;22.61;58.66;101669.82;1540031;93;21598;-50
2022/06/18 05:30:29;;;;;;;14.78;12.28;;;;;;;22.62;58.36;101669.76;1542557;90;21085;-51
2022/06/18 05:33:00;;;;;;;14.45;12.80;;;;;;;22.62;58.17;101672.41;1624676;88;21104;-49
2022/06/18 05:35:29;;;;;;;15.65;13.28;;;;;;;22.65;58.26;101678.85;1637014;87;21085;-51
2022/06/18 05:37:56;;;;;;;14.95;12.73;;;;;;;22.71;58.42;101679.45;1639642;87;21604;-49
2022/06/18 05:40:23;;;;;;;13.03;11.85;;;;;;;22.75;58.65;101683.64;1639997;87;21080;-49
2022/06/18 05:42:49;;;;;;;15.28;13.15;;;;;;;22.77;58.37;101681.29;1668418;85;21148;-50
2022/06/18 05:45:17;;;;;;;14.25;12.85;;;;;;;22.82;58.50;101683.19;1667959;85;21050;-48
2022/06/18 05:47:45;;;;;;;13.58;12.28;;;;;;;22.88;58.23;101687.28;1707081;82;21478;-50
2022/06/18 05:50:14;;;;;;;14.18;12.78;;;;;;;22.90;58.04;101688.05;1750706;82;21030;-49
2022/06/18 05:52:43;;;;;;;13.32;12.03;;;;;;;22.96;58.18;101689.02;1746540;82;21047;-50
2022/06/18 05:55:13;;;;;;;12.00;10.80;;;;;;;23.09;58.14;101701.96;1690214;84;21585;-52
2022/06/18 05:57:48;;;;;;;12.07;11.03;;;;;;;23.22;57.72;101688.36;1691702;84;21553;-51
2022/06/18 06:00:27;;;;;;;10.80;9.80;;;;;;;23.38;57.66;101694.48;1589624;90;21071;-52
2022/06/18 06:02:54;;;;;;;11.43;10.43;;;;;;;23.54;56.80;101689.95;1558927;91;21192;-51
2022/06/18 06:05:22;;;;;;;11.05;9.95;;;;;;;23.62;56.37;101689.51;1559084;92;21164;-49
2022/06/18 06:07:49;;;;;;;10.32;9.45;;;;;;;23.69;56.02;101696.13;1558911;92;21121;-52
2022/06/18 06:13:08;;;;;;;10.63;8.98;;;;;;;23.75;55.96;101699.28;1503435;95;21216;-49
2022/06/18 06:15:37;;;;;;;10.58;8.80;;;;;;;23.77;55.94;101704.02;1517414;94;21093;-51
2022/06/18 06:18:04;;;;;;;8.98;8.18;;;;;;;23.80;55.66;101710.46;1517159;94;21198;-54
2022/06/18 06:20:34;;;;;;;9.50;8.43;;;;;;;23.79;55.53;101698.14;1519863;93;21060;-49
2022/06/18 06:23:01;;;;;;;9.18;8.18;;;;;;;23.78;55.41;101701.73;1564957;90;21127;-48
2022/06/18 06:25:28;;;;;;;8.43;7.50;;;;;;;23.78;55.33;101703.06;1547350;92;21746;-50
2022/06/18 06:27:55;;;;;;;8.43;7.62;;;;;;;23.75;55.30;101697.95;1561952;91;21605;-52
2022/06/18 06:30:22;;;;;;;7.75;6.95;;;;;;;23.73;55.58;101699.84;1562508;91;21109;-51
2022/06/18 06:32:49;;;;;;;7.70;7.00;;;;;;;23.72;55.64;101700.78;1556779;92;21576;-51
2022/06/18 06:35:16;;;;;;;7.58;6.78;;;;;;;23.72;55.55;101704.77;1529088;93;21054;-49
2022/06/18 06:37:43;;;;;;;7.50;6.80;;;;;;;23.71;55.28;101716.36;1532899;93;21133;-50
2022/06/18 06:42:46;;;;;;;7.05;6.35;;;;;;;23.69;55.30;101715.59;1458903;97;21622;-49
2022/06/18 06:45:20;;;;;;;10.72;7.15;;;;;;;23.72;55.27;101719.88;1420644;101;21150;-54
2022/06/18 06:47:47;;;;;;;7.17;6.58;;;;;;;23.72;55.28;101722.04;1419788;101;21102;-53
2022/06/18 06:50:16;;;;;;;7.03;6.50;;;;;;;23.78;55.13;101717.67;1419665;101;21171;-49
2022/06/18 06:52:43;;;;;;;6.53;5.92;;;;;;;23.81;54.83;101721.48;1423768;99;21649;-51
2022/06/18 06:58:19;;;;;;;6.53;5.65;;;;;;;23.86;54.70;101711.44;1432130;100;21089;-51
2022/06/18 07:00:53;;;;;;;6.67;5.85;;;;;;;23.83;54.84;101712.95;1452620;98;21171;-50
2022/06/18 07:03:25;;;;;;;6.75;6.15;;;;;;;23.86;54.71;101713.23;1466639;95;21676;-51
2022/06/18 07:05:52;;;;;;;6.70;6.20;;;;;;;23.89;54.37;101711.70;1491219;94;21117;-53
2022/06/18 07:08:19;;;;;;;6.12;5.55;;;;;;;23.92;54.55;101711.53;1500929;94;21129;-53
2022/06/18 07:10:49;;;;;;;9.75;6.30;;;;;;;23.95;54.43;101711.32;1501045;94;21105;-52
2022/06/18 07:13:17;;;;;;;6.83;5.55;;;;;;;23.97;54.32;101716.93;1500866;94;21162;-51
2022/06/18 07:15:45;;;;;;;6.55;6.05;;;;;;;23.98;54.26;101717.33;1500046;94;21164;-51
2022/06/18 07:18:18;;;;;;;10.38;5.70;;;;;;;23.97;53.94;101710.75;1498651;94;21574;-50
2022/06/18 07:20:45;;;;;;;6.30;5.55;;;;;;;23.95;54.16;101711.32;1478036;96;21564;-51
2022/06/18 07:23:13;;;;;;;5.97;5.47;;;;;;;23.96;54.05;101712.58;1498689;94;21188;-51
2022/06/18 07:25:40;;;;;;;6.12;5.62;;;;;;;23.99;53.77;101716.83;1498505;94;21112;-50
2022/06/18 07:28:08;;;;;;;5.47;5.05;;;;;;;24.00;53.77;101707.45;1498546;94;21084;-51
2022/06/18 07:30:35;;;;;;;5.45;5.05;;;;;;;24.02;53.78;101720.17;1498783;94;21153;-49
2022/06/18 07:33:05;;;;;;;4.53;4.20;;;;;;;24.05;53.64;101726.64;1496261;94;21120;-52
2022/06/18 07:35:34;;;;;;;5.08;4.62;;;;;;;24.10;53.33;101717.05;1491153;95;21114;-49
2022/06/18 07:38:01;;;;;;;4.92;4.20;;;;;;;24.16;52.96;101726.84;1481410;96;21586;-51
2022/06/18 07:40:34;;;;;;;4.22;3.83;;;;;;;24.15;52.32;101725.11;1487707;95;21664;-52
2022/06/18 07:43:03;;;;;;;4.33;3.95;;;;;;;24.14;52.23;101730.06;1591164;88;21052;-50
2022/06/18 07:45:31;;;;;;;3.60;3.40;;;;;;;24.13;51.55;101732.33;1593321;88;21079;-51
2022/06/18 07:47:57;;;;;;;4.72;3.98;;;;;;;24.12;51.39;101737.29;1599291;88;21568;-50
2022/06/18 07:50:25;;;;;;;3.58;3.27;;;;;;;24.12;51.39;101737.29;1593751;88;21124;-52
2022/06/18 07:52:53;;;;;;;5.00;4.05;;;;;;;24.14;51.00;101743.36;1599493;88;21139;-52
2022/06/18 07:55:25;;;;;;;3.70;3.40;;;;;;;24.16;51.11;101745.45;1663346;85;21090;-51
2022/06/18 07:57:52;;;;;;;4.15;3.75;;;;;;;24.14;50.59;101739.38;1662493;85;21069;-51
2022/06/18 08:00:22;;;;;;;4.12;3.72;;;;;;;24.15;50.76;101738.41;1693428;82;21047;-51
2022/06/18 08:02:49;;;;;;;4.08;3.65;;;;;;;24.20;50.67;101742.11;1675698;85;21034;-51
2022/06/18 08:05:23;;;;;;;3.50;3.20;;;;;;;24.23;50.18;101746.76;1687899;84;21023;-51
2022/06/18 08:07:51;;;;;;;5.22;3.52;;;;;;;24.27;50.10;101750.56;1654741;86;21014;-53
2022/06/18 08:10:19;;;;;;;3.10;2.90;;;;;;;24.27;50.13;101747.91;1688072;85;21038;-50
2022/06/18 08:12:46;;;;;;;3.60;2.75;;;;;;;24.29;49.74;101751.33;1688375;84;21046;-52
2022/06/18 08:15:13;;;;;;;2.85;2.65;;;;;;;24.32;49.67;101751.15;1692296;84;21030;-50
2022/06/18 08:17:40;;;;;;;3.75;2.60;;;;;;;24.35;49.52;101747.81;1694389;83;21038;-50
2022/06/18 08:20:08;;;;;;;3.12;2.92;;;;;;;24.37;49.70;101748.56;1714552;82;21030;-51
2022/06/18 08:22:38;;;;;;;3.50;3.20;;;;;;;24.45;49.48;101754.72;1720257;83;21493;-52
2022/06/18 08:25:06;;;;;;;3.85;3.17;;;;;;;24.45;49.48;101754.72;1723107;82;21037;-53
2022/06/18 08:27:35;;;;;;;3.30;3.02;;;;;;;24.49;49.66;101763.75;1722574;82;21029;-50
2022/06/18 08:30:02;;;;;;;3.25;2.95;;;;;;;24.56;48.85;101762.88;1723133;83;21109;-52
2022/06/18 08:32:30;;;;;;;3.30;3.00;;;;;;;24.56;48.85;101762.88;1723019;82;21058;-50
2022/06/18 08:34:56;;;;;;;4.35;3.10;;;;;;;24.55;49.00;101766.48;1715831;83;21146;-49
2022/06/18 08:37:23;;;;;;;3.33;2.98;;;;;;;24.54;48.93;101767.45;1704564;83;21681;-52
2022/06/18 08:39:50;;;;;;;2.75;2.50;;;;;;;24.56;49.08;101769.53;1713995;83;21101;-54
2022/06/18 08:42:38;;;;;;;3.55;2.50;;;;;;;24.61;48.33;101775.41;1707238;83;21573;-50
2022/06/18 08:45:25;;;;;;;4.08;2.58;;;;;;;24.69;48.74;101762.48;1706389;83;21053;-52
2022/06/18 08:48:03;;;;;;;2.75;2.55;;;;;;;24.69;48.74;101762.48;1707798;83;21105;-50
2022/06/18 08:50:48;;;;;;;4.10;2.77;;;;;;;24.79;48.71;101763.62;1702667;83;21026;-52
2022/06/18 08:53:51;;;;;;;2.70;2.50;;;;;;;24.91;48.52;101762.83;1708251;83;21036;-51
2022/06/18 08:56:41;;;;;;;2.77;2.60;;;;;;;25.03;48.00;101755.36;1754195;82;21475;-50
2022/06/18 08:59:27;;;;;;;2.83;2.60;;;;;;;25.03;48.00;101755.36;1719173;83;21102;-49
2022/06/18 09:02:18;;;;;;;3.02;2.72;;;;;;;25.13;47.84;101759.11;1694956;83;21069;-48
2022/06/18 09:04:54;;;;;;;4.95;2.83;;;;;;;25.20;48.30;101759.09;1697066;83;21116;-49
2022/06/18 09:07:43;;;;;;;2.42;2.22;;;;;;;25.33;47.69;101753.77;1686241;83;21037;-52
2022/06/18 09:10:24;;;;;;;3.08;2.87;;;;;;;25.39;47.60;101753.39;1677124;83;21478;-51
2022/06/18 09:12:59;;;;;;;2.33;2.12;;;;;;;25.37;48.16;101756.13;1659327;86;21080;-52
2022/06/18 09:15:36;;;;;;;2.62;2.42;;;;;;;25.40;48.38;101761.73;1633411;87;21100;-52
2022/06/18 09:18:17;;;;;;;2.40;2.30;;;;;;;25.67;47.54;101759.42;1563936;91;21138;-51
2022/06/18 09:20:56;;;;;;;2.33;2.22;;;;;;;25.86;46.64;101762.14;1566591;91;21578;-52
2022/06/18 09:23:33;;;;;;;2.60;2.40;;;;;;;25.96;46.40;101757.88;1562499;91;21077;-52
2022/06/18 09:26:01;;;;;;;3.75;2.30;;;;;;;26.01;46.45;101757.91;1556159;91;21672;-49
2022/06/18 09:28:35;;;;;;;2.85;2.52;;;;;;;26.07;46.56;101751.31;1561059;91;21549;-52
2022/06/18 09:31:28;;;;;;;3.50;1.75;;;;;;;26.11;46.55;101752.84;1520800;93;21122;-52
2022/06/18 09:33:58;;;;;;;2.20;2.00;;;;;;;26.14;45.91;101748.61;1499093;95;21112;-54
2022/06/18 09:36:33;;;;;;;2.40;2.30;;;;;;;26.19;45.67;101750.48;1509530;93;21584;-51
2022/06/18 09:39:07;;;;;;;2.75;2.52;;;;;;;26.23;45.19;101751.97;1493519;95;21077;-53
2022/06/18 09:41:45;;;;;;;1.98;1.87;;;;;;;26.25;45.42;101758.91;1489178;96;21132;-49
2022/06/18 09:44:37;;;;;;;2.30;2.10;;;;;;;26.28;45.26;101755.14;1447672;98;21137;-52
2022/06/18 09:47:27;;;;;;;3.42;2.33;;;;;;;26.29;45.16;101760.86;1437029;98;21128;-52
2022/06/18 09:49:54;;;;;;;4.15;2.12;;;;;;;26.30;45.36;101759.88;1436396;97;21133;-51
2022/06/18 09:52:35;;;;;;;2.33;2.12;;;;;;;26.33;45.36;101756.54;1432267;99;21858;-50
2022/06/18 09:55:10;;;;;;;2.02;1.92;;;;;;;26.38;44.87;101761.52;1387789;103;21163;-50
2022/06/18 09:57:39;;;;;;;2.20;2.10;;;;;;;26.41;44.88;101756.84;1382795;103;21194;-50
2022/06/18 10:00:18;;;;;;;4.78;2.17;;;;;;;26.31;44.93;101755.80;1386018;103;21089;-52
2022/06/18 10:02:54;;;;;;;2.35;2.00;;;;;;;26.29;45.39;101747.52;1387613;103;21090;-49
2022/06/18 10:08:08;;;;;;;3.00;1.90;;;;;;;26.27;44.71;101750.78;1371074;104;21163;-51
2022/06/18 10:10:35;;;;;;;2.25;2.05;;;;;;;26.27;44.81;101748.11;1354608;104;21654;-51
2022/06/18 10:13:08;;;;;;;2.58;2.17;;;;;;;26.45;44.36;101737.45;1366907;104;21178;-50
2022/06/18 10:15:35;;;;;;;2.60;2.40;;;;;;;26.51;43.91;101742.34;1369968;104;21230;-51
2022/06/18 10:18:16;;;;;;;2.25;1.92;;;;;;;26.48;43.46;101739.91;1365026;104;21181;-49
2022/06/18 10:21:17;;;;;;;2.98;2.22;;;;;;;26.43;43.39;101738.04;1360212;104;21234;-51
2022/06/18 10:24:02;;;;;;;2.00;1.90;;;;;;;26.40;43.22;101740.91;1350460;105;21196;-50
2022/06/18 10:26:39;;;;;;;1.92;1.82;;;;;;;26.37;43.67;101743.34;1353543;106;21205;-52
2022/06/18 10:29:34;;;;;;;2.12;1.95;;;;;;;26.36;43.58;101744.77;1351650;106;21152;-50
2022/06/18 10:32:41;;;;;;;1.77;1.67;;;;;;;26.39;43.53;101743.23;1340827;106;21160;-52
2022/06/18 10:35:22;;;;;;;1.90;1.80;;;;;;;26.44;43.01;101739.76;1362374;103;21087;-52
2022/06/18 10:38:05;;;;;;;;;;;;;;;26.52;42.91;101740.05;1374535;103;21202;-53
2022/06/18 10:41:09;;;;;;;2.35;2.00;;;;;;;26.64;42.49;101749.83;1362227;103;20169;-52
2022/06/18 10:44:00;;;;;;;1.75;1.65;;;;;;;26.73;42.01;101746.50;1372532;98;21210;-50
2022/06/18 10:46:27;;;;;;;1.65;1.55;;;;;;;26.84;41.52;101749.25;1510147;94;21548;-49
2022/06/18 10:48:58;;;;;;;1.80;1.37;;;;;;;26.95;41.56;101746.64;1548035;91;21102;-52
2022/06/18 10:51:28;;;;;;;1.45;1.30;;;;;;;27.06;41.58;101741.33;1545247;91;21153;-49
2022/06/18 10:53:58;;;;;;;1.92;1.45;;;;;;;27.17;41.09;101749.41;1511614;92;21136;-50
2022/06/18 10:56:30;;;;;;;1.70;1.60;;;;;;;27.24;40.92;101751.14;1540498;91;21059;-50
2022/06/18 10:59:00;;;;;;;1.12;1.12;;;;;;;27.28;40.29;101752.13;1510573;94;21154;-51
2022/06/18 11:01:32;;;;;;;2.00;1.40;;;;;;;27.31;40.47;101749.21;1524323;93;21063;-52
2022/06/18 11:04:22;;;;;;;1.65;1.55;;;;;;;27.29;40.35;101747.14;1529049;94;21188;-49
2022/06/18 11:06:57;;;;;;;4.30;1.65;;;;;;;27.29;41.27;101745.80;1466226;96;21191;-50
2022/06/18 11:09:28;;;;;;;1.27;1.17;;;;;;;27.35;40.75;101750.71;1449240;98;21077;-52
2022/06/18 11:12:01;;;;;;;1.32;1.22;;;;;;;27.42;39.89;101740.88;1452721;97;21131;-51
2022/06/18 11:14:28;;;;;;;1.70;1.45;;;;;;;27.49;39.74;101741.66;1428100;99;21117;-53
2022/06/18 11:16:55;;;;;;;1.52;1.42;;;;;;;27.55;39.42;101737.65;1452414;98;21130;-52
2022/06/18 11:19:32;;;;;;;1.47;1.37;;;;;;;27.58;39.32;101738.73;1428810;99;21120;-52
2022/06/18 11:22:27;;;;;;;1.40;1.30;;;;;;;27.61;39.34;101737.17;1426407;98;21649;-51
2022/06/18 11:24:57;;;;;;;1.67;1.25;;;;;;;27.65;38.99;101737.30;1429409;100;21616;-51
2022/06/18 11:27:30;;;;;;;4.50;1.52;;;;;;;27.67;38.83;101735.36;1430779;98;21153;-51
2022/06/18 11:29:58;;;;;;;1.30;1.20;;;;;;;27.69;38.56;101736.09;1442532;97;21126;-52
2022/06/18 11:32:36;;;;;;;1.40;1.30;;;;;;;27.75;38.25;101737.81;1450872;97;21164;-53
2022/06/18 11:35:20;;;;;;;1.32;1.22;;;;;;;27.78;38.05;101736.72;1473924;97;21106;-52
2022/06/18 11:38:04;;;;;;;1.30;1.20;;;;;;;27.84;38.63;101728.22;1472624;97;21145;-52
2022/06/18 11:40:32;;;;;;;3.22;1.20;;;;;;;27.93;38.10;101731.48;1419331;101;21184;-49
2022/06/18 11:43:08;;;;;;;2.08;1.30;;;;;;;28.01;38.24;101731.77;1429291;100;21604;-52
2022/06/18 11:45:58;;;;;;;1.65;1.25;;;;;;;28.08;37.64;101728.98;1432740;99;21157;-51
2022/06/18 11:49:00;;;;;;;1.32;1.22;;;;;;;28.13;36.96;101730.30;1430142;100;21164;-52
2022/06/18 11:51:50;;;;;;;1.25;1.07;;;;;;;28.15;37.07;101723.52;1376545;103;21176;-51
2022/06/18 11:54:39;;;;;;;1.57;1.20;;;;;;;28.18;36.48;101729.94;1350434;106;21196;-52
2022/06/18 11:57:18;;;;;;;1.30;1.15;;;;;;;28.16;37.04;101729.22;1289064;111;21236;-52
2022/06/18 11:59:59;;;;;;;3.10;1.07;;;;;;;28.15;36.91;101726.19;1282345;112;21687;-49
2022/06/18 12:02:55;;;;;;;1.90;1.05;;;;;;;28.14;36.66;101727.15;1340305;107;21168;-50
2022/06/18 12:05:45;;;;;;;1.30;1.20;;;;;;;28.11;37.28;101727.38;1344594;106;21168;-52
2022/06/18 12:08:19;;;;;;;3.67;1.65;;;;;;;28.10;37.50;101728.37;1321603;107;21642;-49